| time (UTC) | temp C | wind direction | speed KPH | gust KPH | rain 1hr cm | rain 24hr cm | rain mn cm | humidity % | barometer mb |
| 20260507155233 | 16 | 238 | 3.2 | 17.7 | 0.00 | 0.00 | 0.00 | 60 | 1017.3 |
| 20260507154730 | 16 | 134 | 1.6 | 14.5 | 0.00 | 0.00 | 0.00 | 63 | 1017.2 |
| 20260507154227 | 16 | 107 | 6.4 | 12.9 | 0.00 | 0.00 | 0.00 | 63 | 1017.3 |
| 20260507153724 | 16 | 136 | 8.0 | 12.9 | 0.00 | 0.00 | 0.00 | 61 | 1017.3 |
| 20260507153220 | 16 | 123 | 3.2 | 6.4 | 0.00 | 0.00 | 0.00 | 61 | 1017.4 |
| 20260507152717 | 16 | 74 | 1.6 | 12.9 | 0.00 | 0.00 | 0.00 | 63 | 1017.6 |
| 20260507152213 | 15 | 126 | 3.2 | 9.7 | 0.00 | 0.00 | 0.00 | 65 | 1017.4 |
| 20260507151709 | 15 | 218 | 6.4 | 11.3 | 0.00 | 0.00 | 0.00 | 63 | 1017.5 |
| 20260507151206 | 15 | 187 | 8.0 | 16.1 | 0.00 | 0.00 | 0.00 | 60 | 1017.6 |
| 20260507150703 | 15 | 265 | 4.8 | 14.5 | 0.00 | 0.00 | 0.00 | 63 | 1017.5 |
| 20260507150159 | 15 | 110 | 4.8 | 9.7 | 0.00 | 0.00 | 0.00 | 64 | 1017.4 |
| 20260507145655 | 15 | 130 | 3.2 | 14.5 | 0.00 | 0.00 | 0.00 | 62 | 1017.6 |
| 20260507145152 | 15 | 150 | 1.6 | 9.7 | 0.00 | 0.00 | 0.00 | 66 | 1017.7 |
| 20260507144649 | 15 | 190 | 0.0 | 14.5 | 0.00 | 0.00 | 0.00 | 66 | 1017.5 |
| 20260507144147 | 15 | 288 | 3.2 | 11.3 | 0.00 | 0.00 | 0.00 | 65 | 1017.5 |
| 20260507143643 | 15 | 172 | 4.8 | 9.7 | 0.00 | 0.00 | 0.00 | 64 | 1017.5 |
| 20260507143141 | 14 | 182 | 4.8 | 9.7 | 0.00 | 0.00 | 0.00 | 66 | 1017.3 |
| 20260507142636 | 14 | 156 | 0.0 | 4.8 | 0.00 | 0.00 | 0.00 | 66 | 1017.3 |
| 20260507142133 | 13 | 121 | 1.6 | 11.3 | 0.00 | 0.00 | 0.00 | 67 | 1017.4 |
| 20260507141629 | 14 | 221 | 6.4 | 9.7 | 0.00 | 0.00 | 0.00 | 66 | 1017.5 |
| 20260507141126 | 13 | 120 | 3.2 | 11.3 | 0.00 | 0.00 | 0.00 | 66 | 1017.4 |
| 20260507140623 | 13 | 152 | 6.4 | 6.4 | 0.00 | 0.00 | 0.00 | 65 | 1017.4 |
| 20260507140120 | 13 | 110 | 0.0 | 6.4 | 0.00 | 0.00 | 0.00 | 69 | 1017.6 |
| 20260507135617 | 13 | 118 | 0.0 | 9.7 | 0.00 | 0.00 | 0.00 | 70 | 1017.7 |
| 20260507135115 | 13 | 126 | 3.2 | 4.8 | 0.00 | 0.00 | 0.00 | 67 | 1017.7 |
| 20260507134610 | 12 | 146 | 0.0 | 4.8 | 0.00 | 0.00 | 0.00 | 70 | 1017.7 |
| 20260507134107 | 12 | 138 | 1.6 | 3.2 | 0.00 | 0.00 | 0.00 | 71 | 1017.7 |
| 20260507133603 | 12 | 237 | 1.6 | 6.4 | 0.00 | 0.00 | 0.00 | 72 | 1017.6 |
| 20260507133101 | 12 | 118 | 0.0 | 6.4 | 0.00 | 0.00 | 0.00 | 73 | 1017.6 |
| 20260507132557 | 12 | 155 | 1.6 | 9.7 | 0.00 | 0.00 | 0.00 | 74 | 1017.8 |
| 20260507132054 | 12 | 230 | 6.4 | 6.4 | 0.00 | 0.00 | 0.00 | 71 | 1017.7 |
| 20260507131551 | 11 | 123 | 3.2 | 4.8 | 0.00 | 0.00 | 0.00 | 72 | 1017.8 |
| 20260507131048 | 11 | 158 | 1.6 | 4.8 | 0.00 | 0.00 | 0.00 | 73 | 1017.6 |
| 20260507130545 | 11 | 113 | 0.0 | 4.8 | 0.00 | 0.00 | 0.00 | 74 | 1018.0 |
| 20260507130043 | 11 | 136 | 3.2 | 4.8 | 0.00 | 0.00 | 0.00 | 74 | 1017.9 |
| 20260507125541 | 11 | 188 | 4.8 | 9.7 | 0.00 | 0.00 | 0.00 | 73 | 1018.0 |
| 20260507125038 | 11 | 202 | 3.2 | 6.4 | 0.00 | 0.00 | 0.00 | 73 | 1017.9 |
| 20260507124534 | 10 | 133 | 1.6 | 4.8 | 0.00 | 0.00 | 0.00 | 74 | 1018.0 |
| 20260507124032 | 10 | 116 | 0.0 | 9.7 | 0.00 | 0.00 | 0.00 | 75 | 1017.9 |
| 20260507123530 | 10 | 133 | 0.0 | 1.6 | 0.00 | 0.00 | 0.00 | 75 | 1017.8 |
| 20260507123027 | 10 | 234 | 1.6 | 3.2 | 0.00 | 0.00 | 0.00 | 76 | 1017.7 |
| 20260507122522 | 9 | 59 | 0.0 | 3.2 | 0.00 | 0.00 | 0.00 | 77 | 1017.8 |
| 20260507122018 | 8 | 109 | 0.0 | 3.2 | 0.00 | 0.00 | 0.00 | 78 | 1017.8 |
| 20260507121514 | 8 | 345 | 0.0 | 1.6 | 0.00 | 0.00 | 0.00 | 78 | 1017.9 |
| 20260507121010 | 8 | 118 | 1.6 | 9.7 | 0.00 | 0.00 | 0.00 | 79 | 1017.9 |
| 20260507120506 | 7 | 141 | 1.6 | 3.2 | 0.00 | 0.00 | 0.00 | 80 | 1017.9 |
| 20260507120004 | 7 | 113 | 0.0 | 1.6 | 0.00 | 0.00 | 0.00 | 82 | 1017.8 |
| 20260507115459 | 6 | 111 | 0.0 | 1.6 | 0.00 | 0.00 | 0.00 | 83 | 1017.8 |
| 20260507114955 | 6 | 111 | 0.0 | 0.0 | 0.00 | 0.00 | 0.00 | 85 | 1017.7 |
| 20260507114451 | 6 | 112 | 0.0 | 0.0 | 0.00 | 0.00 | 0.00 | 84 | 1017.7 |
| 20260507113949 | 6 | 114 | 0.0 | 0.0 | 0.00 | 0.00 | 0.00 | 83 | 1017.7 |
| 20260507113446 | 6 | 121 | 0.0 | 1.6 | 0.00 | 0.00 | 0.00 | 81 | 1017.7 |
| 20260507112943 | 6 | 108 | 0.0 | 0.0 | 0.00 | 0.00 | 0.00 | 80 | 1017.7 |
| 20260507112440 | 6 | 116 | 0.0 | 0.0 | 0.00 | 0.00 | 0.00 | 80 | 1017.6 |
| 20260507111937 | 6 | 107 | 0.0 | 0.0 | 0.00 | 0.00 | 0.00 | 80 | 1017.6 |
| 20260507111435 | 6 | 116 | 0.0 | 0.0 | 0.00 | 0.00 | 0.00 | 80 | 1017.7 |
| 20260507110931 | 6 | 110 | 0.0 | 0.0 | 0.00 | 0.00 | 0.00 | 80 | 1017.7 |
| 20260507110427 | 6 | 104 | 0.0 | 0.0 | 0.00 | 0.00 | 0.00 | 80 | 1017.8 |
| 20260507105924 | 6 | 105 | 0.0 | 0.0 | 0.00 | 0.00 | 0.00 | 79 | 1017.6 |
| 20260507105421 | 6 | 106 | 0.0 | 0.0 | 0.00 | 0.00 | 0.00 | 79 | 1017.7 |
| 20260507104917 | 6 | 115 | 0.0 | 0.0 | 0.00 | 0.00 | 0.00 | 79 | 1017.7 |
| 20260507104415 | 7 | 113 | 0.0 | 0.0 | 0.00 | 0.00 | 0.00 | 78 | 1017.5 |
| 20260507103910 | 6 | 123 | 0.0 | 0.0 | 0.00 | 0.00 | 0.00 | 77 | 1017.6 |
| 20260507103407 | 6 | 124 | 0.0 | 1.6 | 0.00 | 0.00 | 0.00 | 78 | 1017.6 |
| 20260507102903 | 6 | 118 | 0.0 | 3.2 | 0.00 | 0.00 | 0.00 | 78 | 1017.6 |
| 20260507102400 | 6 | 114 | 0.0 | 0.0 | 0.00 | 0.00 | 0.00 | 78 | 1017.6 |
| 20260507101856 | 6 | 120 | 0.0 | 0.0 | 0.00 | 0.00 | 0.00 | 78 | 1017.5 |
| 20260507101356 | 6 | 118 | 0.0 | 0.0 | 0.00 | 0.00 | 0.00 | 79 | 1017.7 |
| 20260507100854 | 6 | 118 | 0.0 | 0.0 | 0.00 | 0.00 | 0.00 | 77 | 1017.5 |
| 20260507100351 | 6 | 114 | 0.0 | 0.0 | 0.00 | 0.00 | 0.00 | 78 | 1017.7 |
| 20260507095849 | 6 | 115 | 0.0 | 0.0 | 0.00 | 0.00 | 0.00 | 77 | 1017.8 |
| 20260507095345 | 6 | 118 | 0.0 | 0.0 | 0.00 | 0.00 | 0.00 | 76 | 1017.7 |
| 20260507094843 | 7 | 123 | 0.0 | 0.0 | 0.00 | 0.00 | 0.00 | 76 | 1017.9 |
| 20260507094339 | 6 | 117 | 0.0 | 0.0 | 0.00 | 0.00 | 0.00 | 77 | 1017.9 |
| 20260507093837 | 6 | 128 | 0.0 | 0.0 | 0.00 | 0.00 | 0.00 | 77 | 1018.0 |
| 20260507093335 | 6 | 117 | 0.0 | 0.0 | 0.00 | 0.00 | 0.00 | 76 | 1018.1 |
| 20260507092832 | 6 | 117 | 0.0 | 0.0 | 0.00 | 0.00 | 0.00 | 75 | 1018.0 |
| 20260507092328 | 6 | 118 | 0.0 | 0.0 | 0.00 | 0.00 | 0.00 | 76 | 1018.1 |
| 20260507091825 | 6 | 116 | 0.0 | 3.2 | 0.00 | 0.00 | 0.00 | 76 | 1018.0 |
| 20260507091322 | 6 | 121 | 0.0 | 0.0 | 0.00 | 0.00 | 0.00 | 76 | 1018.1 |
| 20260507090817 | 6 | 116 | 0.0 | 0.0 | 0.00 | 0.00 | 0.00 | 77 | 1018.2 |
| 20260507090314 | 6 | 113 | 0.0 | 0.0 | 0.00 | 0.00 | 0.00 | 76 | 1018.0 |
| 20260507085811 | 6 | 117 | 0.0 | 0.0 | 0.00 | 0.00 | 0.00 | 77 | 1018.2 |
| 20260507085308 | 6 | 120 | 0.0 | 0.0 | 0.00 | 0.00 | 0.00 | 77 | 1018.1 |
| 20260507084805 | 6 | 117 | 0.0 | 0.0 | 0.00 | 0.00 | 0.00 | 76 | 1018.3 |
| 20260507084301 | 6 | 117 | 0.0 | 0.0 | 0.00 | 0.00 | 0.00 | 75 | 1018.0 |
| 20260507083759 | 6 | 126 | 0.0 | 0.0 | 0.00 | 0.00 | 0.00 | 75 | 1018.1 |
| 20260507083255 | 6 | 117 | 0.0 | 0.0 | 0.00 | 0.00 | 0.00 | 76 | 1018.2 |
| 20260507082751 | 6 | 117 | 0.0 | 0.0 | 0.00 | 0.00 | 0.00 | 75 | 1018.1 |
| 20260507082247 | 6 | 116 | 0.0 | 0.0 | 0.00 | 0.00 | 0.00 | 75 | 1018.1 |
| 20260507081744 | 6 | 110 | 0.0 | 0.0 | 0.00 | 0.00 | 0.00 | 75 | 1018.0 |
| 20260507081240 | 6 | 106 | 0.0 | 0.0 | 0.00 | 0.00 | 0.00 | 76 | 1018.1 |
| 20260507080737 | 6 | 117 | 0.0 | 0.0 | 0.00 | 0.00 | 0.00 | 77 | 1018.1 |
| 20260507080233 | 5 | 125 | 0.0 | 0.0 | 0.00 | 0.00 | 0.00 | 78 | 1018.1 |
| 20260507075729 | 5 | 117 | 0.0 | 0.0 | 0.00 | 0.00 | 0.00 | 78 | 1018.1 |
| 20260507075225 | 5 | 117 | 0.0 | 0.0 | 0.00 | 0.00 | 0.00 | 80 | 1018.1 |
| 20260507074721 | 5 | 118 | 0.0 | 0.0 | 0.00 | 0.00 | 0.00 | 78 | 1018.0 |
| 20260507074220 | 5 | 118 | 0.0 | 0.0 | 0.00 | 0.00 | 0.00 | 77 | 1018.3 |
| 20260507073716 | 5 | 116 | 0.0 | 0.0 | 0.00 | 0.00 | 0.00 | 76 | 1018.1 |
| 20260507073213 | 6 | 116 | 0.0 | 0.0 | 0.00 | 0.00 | 0.00 | 77 | 1018.3 |
| 20260507072710 | 6 | 113 | 0.0 | 0.0 | 0.00 | 0.00 | 0.00 | 75 | 1018.3 |
| 20260507072208 | 6 | 112 | 0.0 | 0.0 | 0.00 | 0.00 | 0.00 | 75 | 1018.2 |
| 20260507071705 | 6 | 119 | 0.0 | 0.0 | 0.00 | 0.00 | 0.00 | 71 | 1018.3 |
| 20260507071201 | 7 | 119 | 0.0 | 0.0 | 0.00 | 0.00 | 0.00 | 70 | 1018.4 |
| 20260507070659 | 7 | 119 | 0.0 | 0.0 | 0.00 | 0.00 | 0.00 | 69 | 1018.6 |
| 20260507070155 | 7 | 107 | 0.0 | 0.0 | 0.00 | 0.00 | 0.00 | 69 | 1018.7 |
| 20260507065651 | 7 | 118 | 0.0 | 0.0 | 0.00 | 0.00 | 0.00 | 69 | 1018.7 |
| 20260507065148 | 7 | 114 | 0.0 | 0.0 | 0.00 | 0.00 | 0.00 | 68 | 1018.8 |
| 20260507064646 | 8 | 114 | 0.0 | 0.0 | 0.00 | 0.00 | 0.00 | 68 | 1018.8 |
| 20260507064144 | 8 | 111 | 0.0 | 1.6 | 0.00 | 0.00 | 0.00 | 66 | 1018.9 |
| 20260507063642 | 8 | 118 | 0.0 | 0.0 | 0.00 | 0.00 | 0.00 | 68 | 1018.9 |
| 20260507063138 | 7 | 121 | 0.0 | 0.0 | 0.00 | 0.00 | 0.00 | 68 | 1018.9 |
| 20260507062635 | 7 | 120 | 0.0 | 0.0 | 0.00 | 0.00 | 0.00 | 71 | 1018.8 |
| 20260507062133 | 7 | 115 | 0.0 | 0.0 | 0.00 | 0.00 | 0.00 | 75 | 1019.2 |
| 20260507061631 | 7 | 116 | 0.0 | 0.0 | 0.00 | 0.00 | 0.00 | 76 | 1018.9 |
| 20260507061128 | 7 | 117 | 0.0 | 0.0 | 0.00 | 0.00 | 0.00 | 75 | 1018.8 |
| 20260507060626 | 7 | 117 | 0.0 | 0.0 | 0.00 | 0.00 | 0.00 | 74 | 1019.0 |
| 20260507060122 | 7 | 117 | 0.0 | 0.0 | 0.00 | 0.00 | 0.00 | 75 | 1019.0 |
| 20260507055618 | 7 | 117 | 0.0 | 0.0 | 0.00 | 0.00 | 0.00 | 75 | 1018.9 |
| 20260507055114 | 7 | 117 | 0.0 | 0.0 | 0.00 | 0.00 | 0.00 | 75 | 1019.0 |
| 20260507054610 | 7 | 117 | 0.0 | 0.0 | 0.00 | 0.00 | 0.00 | 76 | 1018.9 |
| 20260507054107 | 7 | 117 | 0.0 | 0.0 | 0.00 | 0.00 | 0.00 | 78 | 1019.1 |
| 20260507053605 | 7 | 117 | 0.0 | 0.0 | 0.00 | 0.00 | 0.00 | 78 | 1018.9 |
| 20260507053104 | 7 | 117 | 0.0 | 0.0 | 0.00 | 0.00 | 0.00 | 78 | 1019.0 |
| 20260507052601 | 6 | 117 | 0.0 | 0.0 | 0.00 | 0.00 | 0.00 | 81 | 1019.2 |
| 20260507052058 | 6 | 117 | 0.0 | 0.0 | 0.00 | 0.00 | 0.00 | 81 | 1019.0 |
| 20260507051555 | 6 | 117 | 0.0 | 0.0 | 0.00 | 0.00 | 0.00 | 82 | 1019.1 |
| 20260507051052 | 6 | 117 | 0.0 | 0.0 | 0.00 | 0.00 | 0.00 | 82 | 1019.1 |
| 20260507050549 | 6 | 117 | 0.0 | 0.0 | 0.00 | 0.00 | 0.00 | 82 | 1019.0 |
| 20260507050045 | 6 | 117 | 0.0 | 0.0 | 0.00 | 0.00 | 0.00 | 83 | 1019.0 |
| 20260507045542 | 6 | 117 | 0.0 | 0.0 | 0.00 | 0.03 | 0.03 | 83 | 1019.1 |
| 20260507045039 | 5 | 117 | 0.0 | 0.0 | 0.00 | 0.03 | 0.03 | 84 | 1019.1 |
| 20260507044535 | 5 | 117 | 0.0 | 0.0 | 0.00 | 0.03 | 0.03 | 83 | 1019.1 |
| 20260507044032 | 5 | 117 | 0.0 | 0.0 | 0.00 | 0.03 | 0.03 | 84 | 1019.1 |
| 20260507043528 | 6 | 117 | 0.0 | 0.0 | 0.00 | 0.03 | 0.03 | 82 | 1018.9 |
| 20260507043026 | 6 | 117 | 0.0 | 0.0 | 0.00 | 0.03 | 0.03 | 81 | 1019.1 |
| 20260507042521 | 6 | 117 | 0.0 | 0.0 | 0.00 | 0.03 | 0.03 | 80 | 1019.1 |
| 20260507042017 | 6 | 117 | 0.0 | 0.0 | 0.00 | 0.03 | 0.03 | 82 | 1019.0 |
| 20260507041514 | 6 | 117 | 0.0 | 0.0 | 0.00 | 0.03 | 0.03 | 83 | 1019.0 |
| 20260507041011 | 6 | 117 | 0.0 | 0.0 | 0.00 | 0.03 | 0.03 | 83 | 1019.1 |
| 20260507040507 | 6 | 117 | 0.0 | 0.0 | 0.00 | 0.03 | 0.03 | 82 | 1019.2 |
| 20260507040003 | 6 | 117 | 0.0 | 0.0 | 0.00 | 0.03 | 0.03 | 82 | 1019.4 |
| 20260507035500 | 6 | 117 | 0.0 | 0.0 | 0.00 | 0.03 | 0.03 | 81 | 1019.4 |
| 20260507034956 | 6 | 117 | 0.0 | 0.0 | 0.00 | 0.03 | 0.03 | 80 | 1019.4 |
| 20260507034453 | 6 | 117 | 0.0 | 0.0 | 0.00 | 0.03 | 0.03 | 79 | 1019.5 |
| 20260507033951 | 6 | 117 | 0.0 | 0.0 | 0.00 | 0.03 | 0.03 | 77 | 1019.2 |
| 20260507033449 | 6 | 117 | 0.0 | 0.0 | 0.00 | 0.03 | 0.03 | 76 | 1019.2 |
| 20260507032946 | 6 | 117 | 0.0 | 0.0 | 0.00 | 0.03 | 0.03 | 77 | 1019.3 |
| 20260507032443 | 6 | 117 | 0.0 | 0.0 | 0.00 | 0.03 | 0.03 | 77 | 1019.1 |
| 20260507031939 | 6 | 116 | 0.0 | 0.0 | 0.00 | 0.03 | 0.03 | 77 | 1019.2 |
| 20260507031435 | 6 | 116 | 0.0 | 0.0 | 0.00 | 0.03 | 0.03 | 77 | 1019.2 |
| 20260507030932 | 6 | 117 | 0.0 | 0.0 | 0.00 | 0.03 | 0.03 | 77 | 1019.2 |
| 20260507030430 | 6 | 117 | 0.0 | 0.0 | 0.00 | 0.03 | 0.03 | 77 | 1019.3 |
| 20260507025927 | 7 | 117 | 0.0 | 0.0 | 0.00 | 0.03 | 0.03 | 76 | 1019.4 |
| 20260507025424 | 7 | 117 | 0.0 | 0.0 | 0.00 | 0.03 | 0.03 | 74 | 1019.2 |
| 20260507024922 | 7 | 117 | 0.0 | 0.0 | 0.00 | 0.03 | 0.03 | 74 | 1019.1 |
| 20260507024419 | 7 | 117 | 0.0 | 0.0 | 0.00 | 0.03 | 0.03 | 73 | 1019.1 |
| 20260507023914 | 7 | 117 | 0.0 | 0.0 | 0.00 | 0.03 | 0.03 | 73 | 1019.0 |
| 20260507023411 | 7 | 117 | 0.0 | 0.0 | 0.00 | 0.03 | 0.03 | 71 | 1019.1 |
| 20260507022909 | 7 | 117 | 0.0 | 0.0 | 0.00 | 0.03 | 0.03 | 71 | 1019.0 |
| 20260507022405 | 7 | 117 | 0.0 | 0.0 | 0.00 | 0.03 | 0.03 | 69 | 1018.9 |
| 20260507021901 | 7 | 117 | 0.0 | 0.0 | 0.00 | 0.03 | 0.03 | 67 | 1018.8 |
| 20260507021356 | 8 | 117 | 0.0 | 0.0 | 0.00 | 0.03 | 0.03 | 67 | 1018.9 |
| 20260507020855 | 8 | 117 | 0.0 | 0.0 | 0.00 | 0.03 | 0.03 | 65 | 1018.8 |
| 20260507020351 | 8 | 117 | 0.0 | 0.0 | 0.00 | 0.03 | 0.03 | 64 | 1019.0 |
| 20260507015848 | 8 | 117 | 0.0 | 0.0 | 0.00 | 0.03 | 0.03 | 63 | 1018.6 |
| 20260507015346 | 9 | 117 | 0.0 | 0.0 | 0.00 | 0.03 | 0.03 | 62 | 1018.6 |
| 20260507014843 | 9 | 117 | 0.0 | 0.0 | 0.00 | 0.03 | 0.03 | 60 | 1018.6 |
| 20260507014339 | 9 | 119 | 0.0 | 0.0 | 0.00 | 0.03 | 0.03 | 60 | 1018.7 |
| 20260507013836 | 10 | 120 | 0.0 | 0.0 | 0.00 | 0.03 | 0.03 | 56 | 1018.6 |
| 20260507013333 | 10 | 119 | 0.0 | 0.0 | 0.00 | 0.03 | 0.03 | 56 | 1018.6 |
| 20260507012830 | 10 | 119 | 0.0 | 0.0 | 0.00 | 0.03 | 0.03 | 53 | 1018.4 |
| 20260507012326 | 10 | 119 | 0.0 | 0.0 | 0.00 | 0.03 | 0.03 | 51 | 1018.7 |
| 20260507011823 | 11 | 120 | 0.0 | 0.0 | 0.00 | 0.03 | 0.03 | 49 | 1018.4 |
| 20260507011320 | 11 | 119 | 0.0 | 0.0 | 0.00 | 0.03 | 0.03 | 47 | 1018.4 |
| 20260507010820 | 12 | 120 | 0.0 | 0.0 | 0.00 | 0.03 | 0.03 | 46 | 1018.3 |
| 20260507010315 | 12 | 97 | 0.0 | 0.0 | 0.00 | 0.03 | 0.03 | 43 | 1018.3 |
| 20260507005813 | 12 | 133 | 0.0 | 0.0 | 0.00 | 0.03 | 0.03 | 42 | 1018.3 |
| 20260507005310 | 13 | 126 | 0.0 | 0.0 | 0.00 | 0.03 | 0.03 | 42 | 1018.3 |
| 20260507004806 | 13 | 102 | 0.0 | 0.0 | 0.00 | 0.03 | 0.03 | 40 | 1018.3 |
| 20260507004304 | 13 | 160 | 3.2 | 4.8 | 0.00 | 0.03 | 0.03 | 39 | 1018.1 |
| 20260507003800 | 13 | 119 | 3.2 | 9.7 | 0.00 | 0.03 | 0.03 | 39 | 1018.3 |
| 20260507003255 | 13 | 98 | 0.0 | 1.6 | 0.00 | 0.03 | 0.03 | 38 | 1018.2 |
| 20260507002751 | 14 | 126 | 0.0 | 1.6 | 0.00 | 0.03 | 0.03 | 37 | 1018.2 |
| 20260507002247 | 15 | 186 | 0.0 | 6.4 | 0.00 | 0.03 | 0.03 | 37 | 1018.2 |
| 20260507001745 | 15 | 119 | 1.6 | 4.8 | 0.00 | 0.03 | 0.03 | 36 | 1018.4 |
| 20260507001242 | 15 | 107 | 0.0 | 4.8 | 0.00 | 0.03 | 0.03 | 38 | 1018.3 |
| 20260507000738 | 15 | 125 | 0.0 | 1.6 | 0.00 | 0.03 | 0.03 | 36 | 1018.1 |
| 20260507000234 | 15 | 109 | 0.0 | 1.6 | 0.00 | 0.03 | 0.03 | 35 | 1018.3 |
| 20260506235731 | 15 | 104 | 1.6 | 1.6 | 0.00 | 0.03 | 0.03 | 36 | 1018.4 |
| 20260506235226 | 15 | 122 | 0.0 | 4.8 | 0.00 | 0.03 | 0.03 | 36 | 1018.1 |
| 20260506234723 | 15 | 30 | 3.2 | 6.4 | 0.00 | 0.03 | 0.03 | 35 | 1018.3 |
| 20260506234221 | 15 | 130 | 3.2 | 9.7 | 0.00 | 0.03 | 0.03 | 38 | 1018.2 |
| 20260506233718 | 15 | 113 | 0.0 | 9.7 | 0.00 | 0.03 | 0.03 | 36 | 1018.3 |
| 20260506233215 | 15 | 150 | 1.6 | 6.4 | 0.00 | 0.03 | 0.03 | 36 | 1018.1 |
| 20260506232711 | 16 | 287 | 6.4 | 6.4 | 0.00 | 0.03 | 0.03 | 35 | 1018.2 |
| 20260506232206 | 15 | 159 | 0.0 | 9.7 | 0.00 | 0.03 | 0.03 | 36 | 1018.1 |
| 20260506231704 | 16 | 41 | 0.0 | 3.2 | 0.00 | 0.03 | 0.03 | 35 | 1018.1 |
| 20260506231202 | 16 | 147 | 0.0 | 6.4 | 0.00 | 0.03 | 0.03 | 37 | 1018.3 |
| 20260506230658 | 15 | 200 | 3.2 | 4.8 | 0.00 | 0.03 | 0.03 | 38 | 1018.3 |
| 20260506230155 | 16 | 214 | 6.4 | 6.4 | 0.00 | 0.03 | 0.03 | 36 | 1018.2 |
| 20260506225652 | 16 | 158 | 1.6 | 4.8 | 0.00 | 0.03 | 0.03 | 36 | 1018.0 |
| 20260506225149 | 16 | 171 | 6.4 | 6.4 | 0.00 | 0.03 | 0.03 | 34 | 1018.2 |
| 20260506224645 | 16 | 34 | 0.0 | 1.6 | 0.00 | 0.03 | 0.03 | 37 | 1018.2 |
| 20260506224142 | 16 | 357 | 0.0 | 11.3 | 0.00 | 0.03 | 0.03 | 38 | 1018.1 |
| 20260506223638 | 16 | 209 | 1.6 | 4.8 | 0.00 | 0.03 | 0.03 | 35 | 1018.1 |
| 20260506223134 | 16 | 201 | 3.2 | 6.4 | 0.00 | 0.03 | 0.03 | 34 | 1018.3 |
| 20260506222631 | 16 | 133 | 4.8 | 9.7 | 0.00 | 0.03 | 0.03 | 35 | 1018.4 |
| 20260506222127 | 16 | 101 | 0.0 | 6.4 | 0.00 | 0.03 | 0.03 | 38 | 1018.3 |
| 20260506221625 | 16 | 141 | 0.0 | 9.7 | 0.00 | 0.03 | 0.03 | 37 | 1018.1 |
| 20260506221123 | 16 | 116 | 0.0 | 3.2 | 0.00 | 0.03 | 0.03 | 38 | 1018.2 |
| 20260506220620 | 16 | 225 | 6.4 | 9.7 | 0.00 | 0.03 | 0.03 | 36 | 1018.6 |
| 20260506220114 | 16 | 107 | 3.2 | 9.7 | 0.00 | 0.03 | 0.03 | 35 | 1018.4 |
| 20260506215612 | 16 | 100 | 0.0 | 11.3 | 0.00 | 0.03 | 0.03 | 37 | 1018.7 |
| 20260506215107 | 16 | 50 | 0.0 | 6.4 | 0.00 | 0.03 | 0.03 | 36 | 1018.6 |
| 20260506214604 | 16 | 117 | 0.0 | 6.4 | 0.00 | 0.03 | 0.03 | 35 | 1018.2 |
| 20260506214102 | 16 | 34 | 0.0 | 6.4 | 0.00 | 0.03 | 0.03 | 38 | 1018.7 |
| 20260506213600 | 16 | 93 | 3.2 | 6.4 | 0.00 | 0.03 | 0.03 | 35 | 1018.8 |
| 20260506213057 | 16 | 150 | 1.6 | 11.3 | 0.00 | 0.03 | 0.03 | 40 | 1018.9 |
| 20260506212554 | 16 | 92 | 0.0 | 3.2 | 0.00 | 0.03 | 0.03 | 42 | 1018.7 |
| 20260506212048 | 16 | 151 | 4.8 | 6.4 | 0.00 | 0.03 | 0.03 | 37 | 1018.6 |
| 20260506211544 | 16 | 87 | 6.4 | 11.3 | 0.00 | 0.03 | 0.03 | 37 | 1018.7 |
| 20260506211042 | 16 | 280 | 4.8 | 6.4 | 0.00 | 0.03 | 0.03 | 38 | 1018.9 |
| 20260506210538 | 16 | 116 | 1.6 | 4.8 | 0.00 | 0.03 | 0.03 | 37 | 1018.8 |
| 20260506210035 | 16 | 133 | 1.6 | 9.7 | 0.00 | 0.03 | 0.03 | 40 | 1018.9 |
| 20260506205532 | 16 | 46 | 1.6 | 4.8 | 0.00 | 0.03 | 0.03 | 42 | 1018.9 |
| 20260506205027 | 16 | 330 | 8.0 | 12.9 | 0.00 | 0.03 | 0.03 | 36 | 1019.0 |
| 20260506204525 | 15 | 152 | 1.6 | 4.8 | 0.00 | 0.03 | 0.03 | 35 | 1019.4 |
| 20260506204022 | 16 | 300 | 4.8 | 6.4 | 0.00 | 0.03 | 0.03 | 38 | 1019.3 |
| 20260506203520 | 16 | 6 | 3.2 | 6.4 | 0.00 | 0.03 | 0.03 | 36 | 1019.4 |
| 20260506203016 | 16 | 130 | 1.6 | 12.9 | 0.00 | 0.03 | 0.03 | 44 | 1019.3 |
| 20260506202514 | 16 | 231 | 1.6 | 3.2 | 0.00 | 0.03 | 0.03 | 36 | 1019.4 |
| 20260506202010 | 15 | 211 | 0.0 | 6.4 | 0.00 | 0.03 | 0.03 | 37 | 1019.6 |
| 20260506201508 | 15 | 81 | 0.0 | 3.2 | 0.00 | 0.03 | 0.03 | 45 | 1019.6 |
| 20260506201004 | 15 | 256 | 3.2 | 11.3 | 0.00 | 0.03 | 0.03 | 40 | 1019.7 |
| 20260506200500 | 15 | 196 | 3.2 | 6.4 | 0.00 | 0.03 | 0.03 | 39 | 1019.5 |
| 20260506195956 | 15 | 199 | 3.2 | 4.8 | 0.00 | 0.03 | 0.03 | 44 | 1019.7 |
| 20260506195454 | 16 | 151 | 0.0 | 9.7 | 0.00 | 0.03 | 0.03 | 38 | 1019.8 |
| 20260506194950 | 16 | 53 | 1.6 | 4.8 | 0.00 | 0.03 | 0.03 | 41 | 1019.6 |
| 20260506194448 | 15 | 122 | 1.6 | 14.5 | 0.00 | 0.03 | 0.03 | 41 | 1019.6 |
| 20260506193944 | 15 | 241 | 4.8 | 9.7 | 0.00 | 0.03 | 0.03 | 37 | 1019.8 |
| 20260506193442 | 15 | 113 | 0.0 | 9.7 | 0.00 | 0.03 | 0.03 | 39 | 1019.7 |
| 20260506192938 | 15 | 225 | 1.6 | 9.7 | 0.00 | 0.03 | 0.03 | 39 | 1019.6 |
| 20260506192435 | 15 | 111 | 6.4 | 11.3 | 0.00 | 0.03 | 0.03 | 39 | 1019.6 |
| 20260506191932 | 15 | 154 | 0.0 | 6.4 | 0.00 | 0.03 | 0.03 | 45 | 1019.7 |
| 20260506191428 | 15 | 185 | 1.6 | 9.7 | 0.00 | 0.03 | 0.03 | 42 | 1019.7 |
| 20260506190925 | 15 | 49 | 1.6 | 4.8 | 0.00 | 0.03 | 0.03 | 42 | 1019.8 |
| 20260506190422 | 15 | 221 | 3.2 | 11.3 | 0.00 | 0.03 | 0.03 | 38 | 1019.8 |
| 20260506185919 | 15 | 146 | 1.6 | 4.8 | 0.00 | 0.03 | 0.03 | 42 | 1019.8 |
| 20260506185416 | 15 | 84 | 1.6 | 4.8 | 0.00 | 0.03 | 0.03 | 38 | 1019.9 |
| 20260506184913 | 15 | 49 | 1.6 | 9.7 | 0.00 | 0.03 | 0.03 | 48 | 1020.0 |
| 20260506184410 | 15 | 94 | 3.2 | 12.9 | 0.00 | 0.03 | 0.03 | 40 | 1020.0 |
| 20260506183907 | 14 | 98 | 1.6 | 16.1 | 0.00 | 0.03 | 0.03 | 47 | 1020.1 |
| 20260506183402 | 15 | 111 | 0.0 | 3.2 | 0.00 | 0.03 | 0.03 | 44 | 1020.1 |
| 20260506182900 | 14 | 132 | 1.6 | 9.7 | 0.00 | 0.03 | 0.03 | 46 | 1020.1 |
| 20260506182357 | 13 | 247 | 6.4 | 9.7 | 0.00 | 0.03 | 0.03 | 40 | 1020.1 |
| 20260506181854 | 14 | 111 | 1.6 | 6.4 | 0.00 | 0.03 | 0.03 | 46 | 1020.2 |
| 20260506181352 | 13 | 133 | 1.6 | 3.2 | 0.00 | 0.03 | 0.03 | 39 | 1020.2 |
| 20260506180849 | 13 | 137 | 0.0 | 1.6 | 0.00 | 0.03 | 0.03 | 43 | 1020.2 |
| 20260506180345 | 13 | 126 | 6.4 | 6.4 | 0.00 | 0.03 | 0.03 | 42 | 1020.1 |
| 20260506175842 | 13 | 305 | 6.4 | 9.7 | 0.00 | 0.03 | 0.03 | 39 | 1020.2 |
| 20260506175338 | 13 | 107 | 0.0 | 6.4 | 0.00 | 0.03 | 0.03 | 44 | 1020.3 |
| 20260506174835 | 13 | 166 | 1.6 | 3.2 | 0.00 | 0.03 | 0.03 | 42 | 1020.3 |
| 20260506174333 | 13 | 245 | 3.2 | 6.4 | 0.00 | 0.03 | 0.03 | 42 | 1020.3 |
| 20260506173830 | 13 | 141 | 4.8 | 4.8 | 0.00 | 0.03 | 0.03 | 39 | 1020.5 |
| 20260506173327 | 13 | 79 | 1.6 | 6.4 | 0.00 | 0.03 | 0.03 | 42 | 1020.3 |
| 20260506172824 | 13 | 130 | 0.0 | 6.4 | 0.00 | 0.03 | 0.03 | 41 | 1020.4 |
| 20260506172321 | 13 | 72 | 4.8 | 6.4 | 0.00 | 0.03 | 0.03 | 39 | 1020.4 |
| 20260506171818 | 13 | 69 | 1.6 | 9.7 | 0.00 | 0.03 | 0.03 | 44 | 1020.5 |
| 20260506171315 | 13 | 189 | 3.2 | 6.4 | 0.00 | 0.03 | 0.03 | 39 | 1020.3 |
| 20260506170813 | 13 | 181 | 8.0 | 11.3 | 0.00 | 0.03 | 0.03 | 39 | 1020.4 |
| 20260506170308 | 15 | 324 | 8.0 | 11.3 | 0.00 | 0.03 | 0.03 | 38 | 1020.2 |
| 20260506165808 | 14 | 95 | 0.0 | 3.2 | 0.00 | 0.03 | 0.03 | 46 | 1020.2 |
| 20260506165306 | 12 | 115 | 3.2 | 4.8 | 0.00 | 0.03 | 0.03 | 43 | 1020.3 |
| 20260506164801 | 13 | 66 | 0.0 | 4.8 | 0.00 | 0.03 | 0.03 | 44 | 1020.2 |
| 20260506164258 | 12 | 109 | 0.0 | 4.8 | 0.00 | 0.03 | 0.03 | 42 | 1020.2 |
| 20260506163755 | 12 | 96 | 0.0 | 3.2 | 0.00 | 0.03 | 0.03 | 49 | 1020.3 |
| 20260506163250 | 12 | 103 | 0.0 | 1.6 | 0.00 | 0.03 | 0.03 | 45 | 1020.2 |
| 20260506162746 | 12 | 293 | 6.4 | 6.4 | 0.00 | 0.03 | 0.03 | 43 | 1020.4 |
| 20260506162244 | 12 | 275 | 4.8 | 9.7 | 0.00 | 0.03 | 0.03 | 42 | 1020.3 |
| 20260506161741 | 12 | 81 | 1.6 | 4.8 | 0.00 | 0.03 | 0.03 | 45 | 1020.3 |
| 20260506161238 | 13 | 0 | 1.6 | 6.4 | 0.00 | 0.03 | 0.03 | 42 | 1020.1 |
| 20260506160736 | 12 | 108 | 0.0 | 4.8 | 0.00 | 0.03 | 0.03 | 47 | 1020.1 |
| 20260506160232 | 12 | 96 | 1.6 | 17.7 | 0.00 | 0.03 | 0.03 | 46 | 1020.1 |
| 20260506155731 | 12 | 125 | 0.0 | 4.8 | 0.00 | 0.03 | 0.03 | 45 | 1020.0 |